sensor_id;sensor_type;location;lat;lon;timestamp;P1;durP1;ratioP1;P2;durP2;ratioP2
16543;SDS011;8384;47.996;7.786;2023-02-01T00:01:13;7.35;;;6.63;;
16543;SDS011;8384;47.996;7.786;2023-02-01T00:03:38;7.00;;;6.30;;
16543;SDS011;8384;47.996;7.786;2023-02-01T00:06:04;7.43;;;6.67;;
16543;SDS011;8384;47.996;7.786;2023-02-01T00:08:29;7.47;;;6.80;;
16543;SDS011;8384;47.996;7.786;2023-02-01T00:11:02;7.00;;;6.40;;
16543;SDS011;8384;47.996;7.786;2023-02-01T00:13:30;7.43;;;6.65;;
16543;SDS011;8384;47.996;7.786;2023-02-01T00:16:07;7.70;;;6.95;;
16543;SDS011;8384;47.996;7.786;2023-02-01T00:18:35;6.97;;;6.38;;
16543;SDS011;8384;47.996;7.786;2023-02-01T00:21:01;7.20;;;6.53;;
16543;SDS011;8384;47.996;7.786;2023-02-01T00:23:27;6.97;;;6.28;;
16543;SDS011;8384;47.996;7.786;2023-02-01T00:25:52;6.80;;;6.10;;
16543;SDS011;8384;47.996;7.786;2023-02-01T00:28:17;6.97;;;6.27;;
16543;SDS011;8384;47.996;7.786;2023-02-01T00:30:43;6.97;;;6.27;;
16543;SDS011;8384;47.996;7.786;2023-02-01T00:33:08;6.90;;;6.20;;
16543;SDS011;8384;47.996;7.786;2023-02-01T00:35:34;6.57;;;5.97;;
16543;SDS011;8384;47.996;7.786;2023-02-01T00:38:00;6.25;;;5.65;;
16543;SDS011;8384;47.996;7.786;2023-02-01T00:40:26;6.03;;;5.53;;
16543;SDS011;8384;47.996;7.786;2023-02-01T00:42:51;6.20;;;5.60;;
16543;SDS011;8384;47.996;7.786;2023-02-01T00:45:16;6.18;;;5.57;;
16543;SDS011;8384;47.996;7.786;2023-02-01T00:47:42;6.33;;;5.77;;
16543;SDS011;8384;47.996;7.786;2023-02-01T00:50:07;6.40;;;5.80;;
16543;SDS011;8384;47.996;7.786;2023-02-01T00:52:33;7.38;;;6.15;;
16543;SDS011;8384;47.996;7.786;2023-02-01T00:54:58;6.27;;;5.67;;
16543;SDS011;8384;47.996;7.786;2023-02-01T00:57:24;6.67;;;6.07;;
16543;SDS011;8384;47.996;7.786;2023-02-01T00:59:49;6.63;;;5.93;;
16543;SDS011;8384;47.996;7.786;2023-02-01T01:02:14;6.57;;;5.97;;
16543;SDS011;8384;47.996;7.786;2023-02-01T01:04:40;6.13;;;5.53;;
16543;SDS011;8384;47.996;7.786;2023-02-01T01:07:05;6.50;;;5.90;;
16543;SDS011;8384;47.996;7.786;2023-02-01T01:09:31;6.13;;;5.53;;
16543;SDS011;8384;47.996;7.786;2023-02-01T01:11:56;6.73;;;6.03;;
16543;SDS011;8384;47.996;7.786;2023-02-01T01:14:22;6.93;;;5.70;;
16543;SDS011;8384;47.996;7.786;2023-02-01T01:16:47;6.13;;;5.53;;
16543;SDS011;8384;47.996;7.786;2023-02-01T01:19:15;6.18;;;5.57;;
16543;SDS011;8384;47.996;7.786;2023-02-01T01:21:40;6.50;;;5.90;;
16543;SDS011;8384;47.996;7.786;2023-02-01T01:24:05;6.23;;;5.67;;
16543;SDS011;8384;47.996;7.786;2023-02-01T01:26:31;6.20;;;5.60;;
16543;SDS011;8384;47.996;7.786;2023-02-01T01:28:56;6.47;;;5.87;;
16543;SDS011;8384;47.996;7.786;2023-02-01T01:31:23;6.70;;;6.00;;
16543;SDS011;8384;47.996;7.786;2023-02-01T01:33:51;6.72;;;6.07;;
16543;SDS011;8384;47.996;7.786;2023-02-01T01:36:18;7.00;;;6.30;;
16543;SDS011;8384;47.996;7.786;2023-02-01T01:38:44;7.05;;;6.35;;
16543;SDS011;8384;47.996;7.786;2023-02-01T01:41:12;6.97;;;6.37;;
16543;SDS011;8384;47.996;7.786;2023-02-01T01:43:55;7.07;;;6.38;;
16543;SDS011;8384;47.996;7.786;2023-02-01T01:46:37;6.80;;;6.20;;
16543;SDS011;8384;47.996;7.786;2023-02-01T01:49:10;7.20;;;6.50;;
16543;SDS011;8384;47.996;7.786;2023-02-01T01:51:40;7.23;;;6.23;;
16543;SDS011;8384;47.996;7.786;2023-02-01T01:54:11;6.72;;;6.13;;
16543;SDS011;8384;47.996;7.786;2023-02-01T01:56:42;6.85;;;6.10;;
16543;SDS011;8384;47.996;7.786;2023-02-01T01:59:11;6.57;;;5.97;;
16543;SDS011;8384;47.996;7.786;2023-02-01T02:01:37;6.82;;;6.13;;
16543;SDS011;8384;47.996;7.786;2023-02-01T02:04:03;6.63;;;6.03;;
16543;SDS011;8384;47.996;7.786;2023-02-01T02:09:12;6.13;;;5.53;;
16543;SDS011;8384;47.996;7.786;2023-02-01T02:11:38;6.03;;;5.43;;
16543;SDS011;8384;47.996;7.786;2023-02-01T02:14:04;6.07;;;5.47;;
16543;SDS011;8384;47.996;7.786;2023-02-01T02:16:36;6.00;;;5.47;;
16543;SDS011;8384;47.996;7.786;2023-02-01T02:22:13;6.95;;;5.53;;
16543;SDS011;8384;47.996;7.786;2023-02-01T02:30:18;6.65;;;5.72;;
16543;SDS011;8384;47.996;7.786;2023-02-01T02:41:09;6.75;;;6.00;;
16543;SDS011;8384;47.996;7.786;2023-02-01T02:44:00;6.78;;;5.78;;
16543;SDS011;8384;47.996;7.786;2023-02-01T02:46:55;6.70;;;5.70;;
16543;SDS011;8384;47.996;7.786;2023-02-01T02:49:52;6.07;;;5.43;;
16543;SDS011;8384;47.996;7.786;2023-02-01T02:53:05;6.40;;;5.78;;
16543;SDS011;8384;47.996;7.786;2023-02-01T02:56:12;6.20;;;5.60;;
16543;SDS011;8384;47.996;7.786;2023-02-01T02:58:58;6.25;;;5.65;;
16543;SDS011;8384;47.996;7.786;2023-02-01T03:01:42;6.97;;;5.78;;
16543;SDS011;8384;47.996;7.786;2023-02-01T03:04:27;7.25;;;5.70;;
16543;SDS011;8384;47.996;7.786;2023-02-01T03:06:52;6.77;;;5.60;;
16543;SDS011;8384;47.996;7.786;2023-02-01T03:09:21;6.97;;;5.80;;
16543;SDS011;8384;47.996;7.786;2023-02-01T03:11:56;7.00;;;5.80;;
16543;SDS011;8384;47.996;7.786;2023-02-01T03:14:47;5.90;;;5.30;;
16543;SDS011;8384;47.996;7.786;2023-02-01T03:17:19;6.10;;;5.50;;
16543;SDS011;8384;47.996;7.786;2023-02-01T03:20:02;6.40;;;5.78;;
16543;SDS011;8384;47.996;7.786;2023-02-01T03:22:30;7.22;;;5.65;;
16543;SDS011;8384;47.996;7.786;2023-02-01T03:25:12;6.72;;;5.53;;
16543;SDS011;8384;47.996;7.786;2023-02-01T03:27:47;6.20;;;5.60;;
16543;SDS011;8384;47.996;7.786;2023-02-01T03:30:29;6.40;;;5.80;;
16543;SDS011;8384;47.996;7.786;2023-02-01T03:33:00;7.75;;;6.28;;
16543;SDS011;8384;47.996;7.786;2023-02-01T03:35:33;7.00;;;5.75;;
16543;SDS011;8384;47.996;7.786;2023-02-01T03:41:09;7.55;;;6.45;;
16543;SDS011;8384;47.996;7.786;2023-02-01T03:46:47;8.05;;;6.35;;
16543;SDS011;8384;47.996;7.786;2023-02-01T03:49:18;6.82;;;6.13;;
16543;SDS011;8384;47.996;7.786;2023-02-01T03:51:48;7.50;;;6.80;;
16543;SDS011;8384;47.996;7.786;2023-02-01T03:54:16;7.90;;;6.85;;
16543;SDS011;8384;47.996;7.786;2023-02-01T03:56:43;7.53;;;6.80;;
16543;SDS011;8384;47.996;7.786;2023-02-01T03:59:11;8.80;;;7.33;;
16543;SDS011;8384;47.996;7.786;2023-02-01T04:01:38;7.50;;;6.80;;
16543;SDS011;8384;47.996;7.786;2023-02-01T04:04:03;7.90;;;7.10;;
16543;SDS011;8384;47.996;7.786;2023-02-01T04:06:29;8.23;;;7.20;;
16543;SDS011;8384;47.996;7.786;2023-02-01T04:08:55;8.25;;;7.45;;
16543;SDS011;8384;47.996;7.786;2023-02-01T04:11:20;8.65;;;7.75;;
16543;SDS011;8384;47.996;7.786;2023-02-01T04:13:45;8.45;;;7.55;;
16543;SDS011;8384;47.996;7.786;2023-02-01T04:16:11;8.33;;;7.43;;
16543;SDS011;8384;47.996;7.786;2023-02-01T04:18:36;8.43;;;7.50;;
16543;SDS011;8384;47.996;7.786;2023-02-01T04:21:01;7.80;;;7.00;;
16543;SDS011;8384;47.996;7.786;2023-02-01T04:23:28;7.65;;;6.95;;
16543;SDS011;8384;47.996;7.786;2023-02-01T04:25:58;8.07;;;7.25;;
16543;SDS011;8384;47.996;7.786;2023-02-01T04:28:24;7.60;;;6.88;;
16543;SDS011;8384;47.996;7.786;2023-02-01T04:30:49;7.90;;;7.10;;
16543;SDS011;8384;47.996;7.786;2023-02-01T04:33:15;7.77;;;7.03;;
16543;SDS011;8384;47.996;7.786;2023-02-01T04:35:40;8.33;;;7.23;;
16543;SDS011;8384;47.996;7.786;2023-02-01T04:38:06;7.50;;;6.72;;
16543;SDS011;8384;47.996;7.786;2023-02-01T04:40:32;7.28;;;6.50;;
16543;SDS011;8384;47.996;7.786;2023-02-01T04:42:57;7.47;;;6.72;;
16543;SDS011;8384;47.996;7.786;2023-02-01T04:45:23;7.50;;;6.80;;
16543;SDS011;8384;47.996;7.786;2023-02-01T04:47:48;7.47;;;6.70;;
16543;SDS011;8384;47.996;7.786;2023-02-01T04:50:13;7.43;;;6.72;;
16543;SDS011;8384;47.996;7.786;2023-02-01T04:52:39;7.10;;;6.37;;
16543;SDS011;8384;47.996;7.786;2023-02-01T04:55:04;7.40;;;6.57;;
16543;SDS011;8384;47.996;7.786;2023-02-01T04:57:30;7.33;;;6.63;;
16543;SDS011;8384;47.996;7.786;2023-02-01T04:59:55;7.23;;;6.30;;
16543;SDS011;8384;47.996;7.786;2023-02-01T05:02:20;7.03;;;6.10;;
16543;SDS011;8384;47.996;7.786;2023-02-01T05:04:46;7.30;;;6.55;;
16543;SDS011;8384;47.996;7.786;2023-02-01T05:07:11;7.30;;;6.03;;
16543;SDS011;8384;47.996;7.786;2023-02-01T05:09:36;6.57;;;5.90;;
16543;SDS011;8384;47.996;7.786;2023-02-01T05:12:02;6.60;;;6.00;;
16543;SDS011;8384;47.996;7.786;2023-02-01T05:14:46;6.53;;;5.82;;
16543;SDS011;8384;47.996;7.786;2023-02-01T05:17:12;7.25;;;5.60;;
16543;SDS011;8384;47.996;7.786;2023-02-01T05:19:38;7.37;;;6.00;;
16543;SDS011;8384;47.996;7.786;2023-02-01T05:22:03;6.63;;;6.03;;
16543;SDS011;8384;47.996;7.786;2023-02-01T05:24:29;6.30;;;5.70;;
16543;SDS011;8384;47.996;7.786;2023-02-01T05:26:54;6.70;;;6.00;;
16543;SDS011;8384;47.996;7.786;2023-02-01T05:29:19;6.80;;;6.07;;
16543;SDS011;8384;47.996;7.786;2023-02-01T05:31:45;6.73;;;6.00;;
16543;SDS011;8384;47.996;7.786;2023-02-01T05:34:11;7.63;;;5.88;;
16543;SDS011;8384;47.996;7.786;2023-02-01T05:36:37;6.78;;;5.95;;
16543;SDS011;8384;47.996;7.786;2023-02-01T05:39:03;7.97;;;6.47;;
16543;SDS011;8384;47.996;7.786;2023-02-01T05:41:28;7.30;;;6.47;;
16543;SDS011;8384;47.996;7.786;2023-02-01T05:43:54;6.73;;;6.03;;
16543;SDS011;8384;47.996;7.786;2023-02-01T05:46:19;7.70;;;6.13;;
16543;SDS011;8384;47.996;7.786;2023-02-01T05:48:44;7.37;;;5.90;;
16543;SDS011;8384;47.996;7.786;2023-02-01T05:51:10;7.40;;;6.07;;
16543;SDS011;8384;47.996;7.786;2023-02-01T05:53:36;7.38;;;6.50;;
16543;SDS011;8384;47.996;7.786;2023-02-01T05:56:01;6.35;;;5.70;;
16543;SDS011;8384;47.996;7.786;2023-02-01T05:58:27;7.30;;;6.50;;
16543;SDS011;8384;47.996;7.786;2023-02-01T06:00:52;7.00;;;6.30;;
16543;SDS011;8384;47.996;7.786;2023-02-01T06:03:18;6.68;;;6.00;;
16543;SDS011;8384;47.996;7.786;2023-02-01T06:05:44;6.83;;;6.13;;
16543;SDS011;8384;47.996;7.786;2023-02-01T06:08:09;6.68;;;5.95;;
16543;SDS011;8384;47.996;7.786;2023-02-01T06:10:35;6.37;;;5.40;;
16543;SDS011;8384;47.996;7.786;2023-02-01T06:13:00;7.13;;;5.63;;
16543;SDS011;8384;47.996;7.786;2023-02-01T06:15:25;6.30;;;5.30;;
16543;SDS011;8384;47.996;7.786;2023-02-01T06:17:51;5.87;;;5.20;;
16543;SDS011;8384;47.996;7.786;2023-02-01T06:20:16;6.73;;;5.03;;
16543;SDS011;8384;47.996;7.786;2023-02-01T06:22:41;5.88;;;5.28;;
16543;SDS011;8384;47.996;7.786;2023-02-01T06:25:07;6.97;;;5.20;;
16543;SDS011;8384;47.996;7.786;2023-02-01T06:27:34;5.97;;;5.15;;
16543;SDS011;8384;47.996;7.786;2023-02-01T06:29:59;6.70;;;5.20;;
16543;SDS011;8384;47.996;7.786;2023-02-01T06:32:25;5.87;;;4.90;;
16543;SDS011;8384;47.996;7.786;2023-02-01T06:34:50;6.07;;;4.70;;
16543;SDS011;8384;47.996;7.786;2023-02-01T06:37:17;5.82;;;4.63;;
16543;SDS011;8384;47.996;7.786;2023-02-01T06:39:43;5.75;;;4.63;;
16543;SDS011;8384;47.996;7.786;2023-02-01T06:42:08;5.45;;;4.60;;
16543;SDS011;8384;47.996;7.786;2023-02-01T06:44:33;5.90;;;4.77;;
16543;SDS011;8384;47.996;7.786;2023-02-01T06:46:59;6.00;;;4.43;;
16543;SDS011;8384;47.996;7.786;2023-02-01T06:49:24;4.70;;;4.10;;
16543;SDS011;8384;47.996;7.786;2023-02-01T06:51:49;5.37;;;4.57;;
16543;SDS011;8384;47.996;7.786;2023-02-01T06:54:14;4.80;;;4.33;;
16543;SDS011;8384;47.996;7.786;2023-02-01T06:56:40;5.07;;;4.40;;
16543;SDS011;8384;47.996;7.786;2023-02-01T06:59:06;5.27;;;4.33;;
16543;SDS011;8384;47.996;7.786;2023-02-01T07:01:32;5.37;;;4.40;;
16543;SDS011;8384;47.996;7.786;2023-02-01T07:03:58;5.25;;;4.53;;
16543;SDS011;8384;47.996;7.786;2023-02-01T07:06:23;5.83;;;4.50;;
16543;SDS011;8384;47.996;7.786;2023-02-01T07:08:49;5.43;;;4.10;;
16543;SDS011;8384;47.996;7.786;2023-02-01T07:11:15;6.13;;;4.07;;
16543;SDS011;8384;47.996;7.786;2023-02-01T07:13:41;4.43;;;3.97;;
16543;SDS011;8384;47.996;7.786;2023-02-01T07:16:11;4.63;;;3.95;;
16543;SDS011;8384;47.996;7.786;2023-02-01T07:18:39;4.45;;;3.72;;
16543;SDS011;8384;47.996;7.786;2023-02-01T07:21:04;4.43;;;3.97;;
16543;SDS011;8384;47.996;7.786;2023-02-01T07:23:30;5.57;;;3.92;;
16543;SDS011;8384;47.996;7.786;2023-02-01T07:25:59;4.37;;;3.80;;
16543;SDS011;8384;47.996;7.786;2023-02-01T07:28:27;4.40;;;3.70;;
16543;SDS011;8384;47.996;7.786;2023-02-01T07:30:54;4.22;;;3.83;;
16543;SDS011;8384;47.996;7.786;2023-02-01T07:33:20;4.43;;;4.03;;
16543;SDS011;8384;47.996;7.786;2023-02-01T07:35:47;4.35;;;3.95;;
16543;SDS011;8384;47.996;7.786;2023-02-01T07:38:13;5.83;;;4.20;;
16543;SDS011;8384;47.996;7.786;2023-02-01T07:40:38;4.60;;;4.00;;
16543;SDS011;8384;47.996;7.786;2023-02-01T07:43:04;4.10;;;3.70;;
16543;SDS011;8384;47.996;7.786;2023-02-01T07:45:30;5.00;;;4.20;;
16543;SDS011;8384;47.996;7.786;2023-02-01T07:47:56;5.83;;;4.30;;
16543;SDS011;8384;47.996;7.786;2023-02-01T07:50:21;5.77;;;4.50;;
16543;SDS011;8384;47.996;7.786;2023-02-01T07:52:47;5.10;;;4.30;;
16543;SDS011;8384;47.996;7.786;2023-02-01T07:55:12;5.43;;;4.13;;
16543;SDS011;8384;47.996;7.786;2023-02-01T07:57:37;5.57;;;4.33;;
16543;SDS011;8384;47.996;7.786;2023-02-01T08:00:03;5.67;;;4.37;;
16543;SDS011;8384;47.996;7.786;2023-02-01T08:02:47;5.38;;;4.45;;
16543;SDS011;8384;47.996;7.786;2023-02-01T08:05:12;5.17;;;4.20;;
16543;SDS011;8384;47.996;7.786;2023-02-01T08:07:38;5.07;;;4.27;;
16543;SDS011;8384;47.996;7.786;2023-02-01T08:10:03;4.97;;;3.97;;
16543;SDS011;8384;47.996;7.786;2023-02-01T08:12:30;4.45;;;4.05;;
16543;SDS011;8384;47.996;7.786;2023-02-01T08:14:55;4.40;;;4.00;;
16543;SDS011;8384;47.996;7.786;2023-02-01T08:17:21;4.63;;;3.60;;
16543;SDS011;8384;47.996;7.786;2023-02-01T08:19:46;4.38;;;3.97;;
16543;SDS011;8384;47.996;7.786;2023-02-01T08:22:12;4.20;;;3.70;;
16543;SDS011;8384;47.996;7.786;2023-02-01T08:24:37;7.70;;;4.00;;
16543;SDS011;8384;47.996;7.786;2023-02-01T08:27:05;3.83;;;3.53;;
16543;SDS011;8384;47.996;7.786;2023-02-01T08:29:30;4.23;;;3.57;;
16543;SDS011;8384;47.996;7.786;2023-02-01T08:31:55;3.70;;;3.20;;
16543;SDS011;8384;47.996;7.786;2023-02-01T08:34:21;3.97;;;3.03;;
16543;SDS011;8384;47.996;7.786;2023-02-01T08:36:46;4.17;;;3.00;;
16543;SDS011;8384;47.996;7.786;2023-02-01T08:39:12;3.17;;;2.87;;
16543;SDS011;8384;47.996;7.786;2023-02-01T08:41:37;4.90;;;2.80;;
16543;SDS011;8384;47.996;7.786;2023-02-01T08:44:03;3.50;;;3.08;;
16543;SDS011;8384;47.996;7.786;2023-02-01T08:46:28;3.57;;;2.90;;
16543;SDS011;8384;47.996;7.786;2023-02-01T08:48:54;4.20;;;3.08;;
16543;SDS011;8384;47.996;7.786;2023-02-01T08:51:20;4.40;;;3.13;;
16543;SDS011;8384;47.996;7.786;2023-02-01T08:53:46;3.45;;;2.97;;
16543;SDS011;8384;47.996;7.786;2023-02-01T08:56:13;3.67;;;3.10;;
16543;SDS011;8384;47.996;7.786;2023-02-01T08:58:39;3.38;;;2.85;;
16543;SDS011;8384;47.996;7.786;2023-02-01T09:01:05;5.47;;;3.20;;
16543;SDS011;8384;47.996;7.786;2023-02-01T09:03:32;3.88;;;3.10;;
16543;SDS011;8384;47.996;7.786;2023-02-01T09:06:02;3.57;;;3.10;;
16543;SDS011;8384;47.996;7.786;2023-02-01T09:08:32;3.47;;;2.90;;
16543;SDS011;8384;47.996;7.786;2023-02-01T09:10:58;4.35;;;2.85;;
16543;SDS011;8384;47.996;7.786;2023-02-01T09:13:25;3.65;;;2.90;;
16543;SDS011;8384;47.996;7.786;2023-02-01T09:15:50;3.10;;;2.70;;
16543;SDS011;8384;47.996;7.786;2023-02-01T09:18:16;4.00;;;3.00;;
16543;SDS011;8384;47.996;7.786;2023-02-01T09:20:42;3.25;;;2.72;;
16543;SDS011;8384;47.996;7.786;2023-02-01T09:23:07;3.47;;;3.00;;
16543;SDS011;8384;47.996;7.786;2023-02-01T09:25:32;3.33;;;2.80;;
16543;SDS011;8384;47.996;7.786;2023-02-01T09:27:57;3.30;;;2.90;;
16543;SDS011;8384;47.996;7.786;2023-02-01T09:30:23;3.40;;;3.10;;
16543;SDS011;8384;47.996;7.786;2023-02-01T09:32:48;3.50;;;3.20;;
16543;SDS011;8384;47.996;7.786;2023-02-01T09:35:13;3.27;;;2.93;;
16543;SDS011;8384;47.996;7.786;2023-02-01T09:37:39;3.60;;;3.20;;
16543;SDS011;8384;47.996;7.786;2023-02-01T09:40:04;3.47;;;3.17;;
16543;SDS011;8384;47.996;7.786;2023-02-01T09:45:31;3.83;;;3.42;;
16543;SDS011;8384;47.996;7.786;2023-02-01T09:48:13;4.35;;;3.95;;
16543;SDS011;8384;47.996;7.786;2023-02-01T09:50:44;3.95;;;3.55;;
16543;SDS011;8384;47.996;7.786;2023-02-01T09:53:24;5.22;;;3.60;;
16543;SDS011;8384;47.996;7.786;2023-02-01T09:56:18;4.38;;;3.50;;
16543;SDS011;8384;47.996;7.786;2023-02-01T10:01:47;4.72;;;3.72;;
16543;SDS011;8384;47.996;7.786;2023-02-01T10:04:13;4.43;;;4.03;;
16543;SDS011;8384;47.996;7.786;2023-02-01T10:27:01;6.35;;;4.50;;
16543;SDS011;8384;47.996;7.786;2023-02-01T10:29:37;6.88;;;4.50;;
16543;SDS011;8384;47.996;7.786;2023-02-01T10:32:21;6.60;;;4.60;;
16543;SDS011;8384;47.996;7.786;2023-02-01T10:34:55;5.10;;;4.35;;
16543;SDS011;8384;47.996;7.786;2023-02-01T10:37:33;4.80;;;4.30;;
16543;SDS011;8384;47.996;7.786;2023-02-01T10:40:14;5.68;;;4.65;;
16543;SDS011;8384;47.996;7.786;2023-02-01T10:42:43;6.40;;;4.50;;
16543;SDS011;8384;47.996;7.786;2023-02-01T10:45:11;6.40;;;4.35;;
16543;SDS011;8384;47.996;7.786;2023-02-01T10:47:40;6.53;;;4.50;;
16543;SDS011;8384;47.996;7.786;2023-02-01T10:52:58;5.40;;;4.20;;
16543;SDS011;8384;47.996;7.786;2023-02-01T10:55:41;5.63;;;4.07;;
16543;SDS011;8384;47.996;7.786;2023-02-01T10:58:36;5.60;;;4.23;;
16543;SDS011;8384;47.996;7.786;2023-02-01T11:01:08;6.57;;;4.00;;
16543;SDS011;8384;47.996;7.786;2023-02-01T11:03:41;5.40;;;4.10;;
16543;SDS011;8384;47.996;7.786;2023-02-01T11:08:45;6.05;;;3.80;;
16543;SDS011;8384;47.996;7.786;2023-02-01T11:11:13;5.22;;;3.55;;
16543;SDS011;8384;47.996;7.786;2023-02-01T11:13:39;6.03;;;3.60;;
16543;SDS011;8384;47.996;7.786;2023-02-01T11:16:05;6.57;;;3.90;;
16543;SDS011;8384;47.996;7.786;2023-02-01T11:18:34;7.10;;;3.67;;
16543;SDS011;8384;47.996;7.786;2023-02-01T11:21:01;6.80;;;3.70;;
16543;SDS011;8384;47.996;7.786;2023-02-01T11:23:28;7.57;;;3.97;;
16543;SDS011;8384;47.996;7.786;2023-02-01T11:25:57;6.72;;;3.72;;
16543;SDS011;8384;47.996;7.786;2023-02-01T11:28:25;6.22;;;3.40;;
16543;SDS011;8384;47.996;7.786;2023-02-01T11:30:54;6.30;;;3.60;;
16543;SDS011;8384;47.996;7.786;2023-02-01T11:33:24;5.68;;;3.35;;
16543;SDS011;8384;47.996;7.786;2023-02-01T11:35:54;6.40;;;3.58;;
16543;SDS011;8384;47.996;7.786;2023-02-01T11:40:51;5.55;;;3.30;;
16543;SDS011;8384;47.996;7.786;2023-02-01T11:43:24;5.47;;;3.20;;
16543;SDS011;8384;47.996;7.786;2023-02-01T11:46:08;6.22;;;3.20;;
16543;SDS011;8384;47.996;7.786;2023-02-01T11:48:47;6.70;;;3.17;;
16543;SDS011;8384;47.996;7.786;2023-02-01T11:54:06;5.30;;;3.10;;
16543;SDS011;8384;47.996;7.786;2023-02-01T11:56:59;5.80;;;3.00;;
16543;SDS011;8384;47.996;7.786;2023-02-01T12:22:56;7.05;;;3.53;;
16543;SDS011;8384;47.996;7.786;2023-02-01T12:31:26;10.75;;;3.90;;
16543;SDS011;8384;47.996;7.786;2023-02-01T12:42:44;8.13;;;4.18;;
16543;SDS011;8384;47.996;7.786;2023-02-01T12:50:54;7.07;;;3.97;;
16543;SDS011;8384;47.996;7.786;2023-02-01T12:53:26;11.38;;;4.15;;
16543;SDS011;8384;47.996;7.786;2023-02-01T12:55:58;9.98;;;4.40;;
16543;SDS011;8384;47.996;7.786;2023-02-01T12:58:48;7.97;;;3.83;;
16543;SDS011;8384;47.996;7.786;2023-02-01T13:01:36;9.63;;;4.20;;
16543;SDS011;8384;47.996;7.786;2023-02-01T13:07:26;10.68;;;4.32;;
16543;SDS011;8384;47.996;7.786;2023-02-01T13:09:52;8.80;;;4.10;;
16543;SDS011;8384;47.996;7.786;2023-02-01T13:12:24;9.25;;;4.05;;
16543;SDS011;8384;47.996;7.786;2023-02-01T13:14:55;9.52;;;4.18;;
16543;SDS011;8384;47.996;7.786;2023-02-01T13:17:26;8.98;;;4.10;;
16543;SDS011;8384;47.996;7.786;2023-02-01T13:22:39;8.77;;;3.75;;
16543;SDS011;8384;47.996;7.786;2023-02-01T13:25:25;7.40;;;3.45;;
16543;SDS011;8384;47.996;7.786;2023-02-01T13:28:00;8.65;;;3.58;;
16543;SDS011;8384;47.996;7.786;2023-02-01T13:30:35;6.83;;;3.77;;
16543;SDS011;8384;47.996;7.786;2023-02-01T13:33:17;7.25;;;3.13;;
16543;SDS011;8384;47.996;7.786;2023-02-01T13:44:29;9.07;;;3.72;;
16543;SDS011;8384;47.996;7.786;2023-02-01T13:46:59;7.32;;;3.28;;
16543;SDS011;8384;47.996;7.786;2023-02-01T13:49:29;10.63;;;3.50;;
16543;SDS011;8384;47.996;7.786;2023-02-01T13:51:57;10.13;;;3.53;;
16543;SDS011;8384;47.996;7.786;2023-02-01T13:56:58;9.20;;;3.35;;
16543;SDS011;8384;47.996;7.786;2023-02-01T14:05:01;10.15;;;3.72;;
16543;SDS011;8384;47.996;7.786;2023-02-01T14:07:26;9.83;;;3.70;;
16543;SDS011;8384;47.996;7.786;2023-02-01T14:09:51;9.00;;;3.77;;
16543;SDS011;8384;47.996;7.786;2023-02-01T14:15:17;8.25;;;3.70;;
16543;SDS011;8384;47.996;7.786;2023-02-01T14:17:47;10.10;;;4.18;;
16543;SDS011;8384;47.996;7.786;2023-02-01T14:23:12;10.07;;;3.80;;
16543;SDS011;8384;47.996;7.786;2023-02-01T14:25:41;8.35;;;3.90;;
16543;SDS011;8384;47.996;7.786;2023-02-01T14:28:23;9.15;;;3.85;;
16543;SDS011;8384;47.996;7.786;2023-02-01T14:30:51;9.80;;;3.53;;
16543;SDS011;8384;47.996;7.786;2023-02-01T14:33:18;9.98;;;4.18;;
16543;SDS011;8384;47.996;7.786;2023-02-01T14:36:09;9.77;;;3.80;;
16543;SDS011;8384;47.996;7.786;2023-02-01T14:38:38;9.90;;;3.78;;
16543;SDS011;8384;47.996;7.786;2023-02-01T14:41:24;8.80;;;3.33;;
16543;SDS011;8384;47.996;7.786;2023-02-01T14:49:31;9.70;;;3.70;;
16543;SDS011;8384;47.996;7.786;2023-02-01T14:51:59;7.00;;;3.40;;
16543;SDS011;8384;47.996;7.786;2023-02-01T14:54:29;10.75;;;3.97;;
16543;SDS011;8384;47.996;7.786;2023-02-01T14:56:55;7.57;;;3.37;;
16543;SDS011;8384;47.996;7.786;2023-02-01T14:59:20;10.45;;;3.80;;
16543;SDS011;8384;47.996;7.786;2023-02-01T15:01:55;9.55;;;3.60;;
16543;SDS011;8384;47.996;7.786;2023-02-01T15:04:25;10.27;;;3.80;;
16543;SDS011;8384;47.996;7.786;2023-02-01T15:06:52;9.20;;;3.70;;
16543;SDS011;8384;47.996;7.786;2023-02-01T15:11:56;9.38;;;3.65;;
16543;SDS011;8384;47.996;7.786;2023-02-01T15:14:32;7.45;;;3.58;;
16543;SDS011;8384;47.996;7.786;2023-02-01T15:16:59;10.73;;;4.20;;
16543;SDS011;8384;47.996;7.786;2023-02-01T15:19:26;11.80;;;3.80;;
16543;SDS011;8384;47.996;7.786;2023-02-01T15:21:54;9.50;;;3.75;;
16543;SDS011;8384;47.996;7.786;2023-02-01T15:24:22;8.88;;;3.42;;
16543;SDS011;8384;47.996;7.786;2023-02-01T15:26:49;10.10;;;4.30;;
16543;SDS011;8384;47.996;7.786;2023-02-01T15:29:15;9.32;;;3.47;;
16543;SDS011;8384;47.996;7.786;2023-02-01T15:31:43;11.27;;;4.10;;
16543;SDS011;8384;47.996;7.786;2023-02-01T15:34:10;8.97;;;3.80;;
16543;SDS011;8384;47.996;7.786;2023-02-01T15:36:36;9.07;;;3.75;;
16543;SDS011;8384;47.996;7.786;2023-02-01T15:39:44;10.07;;;4.00;;
16543;SDS011;8384;47.996;7.786;2023-02-01T15:41:52;9.17;;;4.00;;
16543;SDS011;8384;47.996;7.786;2023-02-01T15:44:28;10.40;;;4.00;;
16543;SDS011;8384;47.996;7.786;2023-02-01T15:46:55;10.80;;;4.03;;
16543;SDS011;8384;47.996;7.786;2023-02-01T15:49:28;11.77;;;4.50;;
16543;SDS011;8384;47.996;7.786;2023-02-01T15:51:56;8.97;;;4.10;;
16543;SDS011;8384;47.996;7.786;2023-02-01T15:54:31;10.23;;;4.18;;
16543;SDS011;8384;47.996;7.786;2023-02-01T15:57:02;9.85;;;4.20;;
16543;SDS011;8384;47.996;7.786;2023-02-01T15:59:36;11.20;;;4.40;;
16543;SDS011;8384;47.996;7.786;2023-02-01T16:02:24;10.75;;;4.75;;
16543;SDS011;8384;47.996;7.786;2023-02-01T16:04:49;9.60;;;4.23;;
16543;SDS011;8384;47.996;7.786;2023-02-01T16:07:31;10.97;;;4.27;;
16543;SDS011;8384;47.996;7.786;2023-02-01T16:09:59;8.83;;;3.73;;
16543;SDS011;8384;47.996;7.786;2023-02-01T16:15:03;12.27;;;4.15;;
16543;SDS011;8384;47.996;7.786;2023-02-01T16:17:29;10.88;;;3.97;;
16543;SDS011;8384;47.996;7.786;2023-02-01T16:19:54;10.53;;;3.93;;
16543;SDS011;8384;47.996;7.786;2023-02-01T16:22:20;9.10;;;3.93;;
16543;SDS011;8384;47.996;7.786;2023-02-01T16:24:45;8.50;;;3.57;;
16543;SDS011;8384;47.996;7.786;2023-02-01T16:27:11;10.80;;;4.10;;
16543;SDS011;8384;47.996;7.786;2023-02-01T16:29:36;9.77;;;3.60;;
16543;SDS011;8384;47.996;7.786;2023-02-01T16:32:01;12.47;;;4.17;;
16543;SDS011;8384;47.996;7.786;2023-02-01T16:34:26;8.53;;;3.67;;
16543;SDS011;8384;47.996;7.786;2023-02-01T16:36:52;11.18;;;4.10;;
16543;SDS011;8384;47.996;7.786;2023-02-01T16:39:20;8.98;;;3.88;;
16543;SDS011;8384;47.996;7.786;2023-02-01T16:41:46;8.85;;;3.60;;
16543;SDS011;8384;47.996;7.786;2023-02-01T16:44:11;9.57;;;3.70;;
16543;SDS011;8384;47.996;7.786;2023-02-01T16:46:39;9.07;;;3.83;;
16543;SDS011;8384;47.996;7.786;2023-02-01T16:49:08;9.15;;;3.90;;
16543;SDS011;8384;47.996;7.786;2023-02-01T16:51:44;9.52;;;3.97;;
16543;SDS011;8384;47.996;7.786;2023-02-01T16:54:09;11.60;;;4.10;;
16543;SDS011;8384;47.996;7.786;2023-02-01T16:56:35;10.27;;;4.47;;
16543;SDS011;8384;47.996;7.786;2023-02-01T16:59:00;10.70;;;4.20;;
16543;SDS011;8384;47.996;7.786;2023-02-01T17:01:26;9.52;;;4.55;;
16543;SDS011;8384;47.996;7.786;2023-02-01T17:03:52;11.30;;;4.80;;
16543;SDS011;8384;47.996;7.786;2023-02-01T17:06:18;11.55;;;4.53;;
16543;SDS011;8384;47.996;7.786;2023-02-01T17:08:50;9.68;;;4.15;;
16543;SDS011;8384;47.996;7.786;2023-02-01T17:11:17;10.23;;;4.60;;
16543;SDS011;8384;47.996;7.786;2023-02-01T17:13:43;9.77;;;4.23;;
16543;SDS011;8384;47.996;7.786;2023-02-01T17:16:29;11.68;;;4.45;;
16543;SDS011;8384;47.996;7.786;2023-02-01T17:18:57;10.87;;;4.37;;
16543;SDS011;8384;47.996;7.786;2023-02-01T17:21:24;9.03;;;4.03;;
16543;SDS011;8384;47.996;7.786;2023-02-01T17:23:52;9.95;;;4.20;;
16543;SDS011;8384;47.996;7.786;2023-02-01T17:26:17;9.23;;;4.17;;
16543;SDS011;8384;47.996;7.786;2023-02-01T17:28:43;9.93;;;4.38;;
16543;SDS011;8384;47.996;7.786;2023-02-01T17:31:10;11.40;;;4.40;;
16543;SDS011;8384;47.996;7.786;2023-02-01T17:33:39;10.10;;;4.50;;
16543;SDS011;8384;47.996;7.786;2023-02-01T17:36:04;9.80;;;4.35;;
16543;SDS011;8384;47.996;7.786;2023-02-01T17:38:31;8.43;;;4.18;;